Time;durP1;ratioP1;P1;durP2;ratioP2;P2;SDS_P1;SDS_P2;PMS_P1;PMS_P2;Temp;Humidity;BMP_temperature;BMP_pressure;BME280_temperature;BME280_humidity;BME280_pressure;Samples;Min_cycle;Max_cycle;Signal;HPM_P1;HPM_P2
2022/03/22 00:01:01;;;;;;;12.33;9.70;;;4.90;99.90;;;5.54;48.61;-19915.38;5002661;28;20673;-58
2022/03/22 00:03:30;;;;;;;13.03;9.77;;;4.90;99.90;;;5.62;48.64;-19918.13;4990799;28;20201;-57
2022/03/22 00:05:58;;;;;;;11.97;9.97;;;4.80;99.90;;;5.58;48.80;-19916.75;4990037;28;20309;-57
2022/03/22 00:08:27;;;;;;;11.90;9.47;;;4.80;99.90;;;5.57;48.62;-19916.56;4995925;28;20307;-56
2022/03/22 00:10:56;;;;;;;12.80;9.87;;;4.80;99.90;;;5.52;48.68;-19914.69;5009559;28;20224;-57
2022/03/22 00:13:25;;;;;;;14.30;9.57;;;4.80;99.90;;;5.55;49.01;-19915.88;5010058;28;20242;-57
2022/03/22 00:15:55;;;;;;;15.07;10.13;;;4.80;99.90;;;5.71;48.48;-19921.19;5014379;28;20212;-56
2022/03/22 00:18:43;;;;;;;13.03;9.20;;;4.80;99.90;;;5.52;48.75;-19914.69;5013783;28;20223;-57
2022/03/22 00:21:11;;;;;;;14.17;9.80;;;4.80;99.90;;;5.59;49.12;-19917.09;5013378;28;20217;-56
2022/03/22 00:23:42;;;;;;;14.10;8.97;;;4.80;99.90;;;5.48;48.36;-19913.50;5013873;28;20256;-56
2022/03/22 00:26:10;;;;;;;13.27;9.43;;;4.80;99.90;;;5.52;48.42;-19914.88;5013651;28;20228;-55
2022/03/22 00:28:38;;;;;;;13.90;9.50;;;4.70;99.90;;;5.39;49.04;-19910.44;5013496;28;20309;-56
2022/03/22 00:31:08;;;;;;;14.47;9.93;;;4.70;99.90;;;5.47;48.95;-19912.97;5013131;28;20300;-60
2022/03/22 00:33:36;;;;;;;12.50;9.73;;;4.70;99.90;;;5.34;49.41;-19908.53;5014251;28;20297;-57
2022/03/22 00:36:05;;;;;;;12.93;9.80;;;4.70;99.90;;;5.35;49.04;-19908.88;5013482;28;20609;-56
2022/03/22 00:38:33;;;;;;;13.37;9.13;;;4.70;99.90;;;5.23;49.52;-19904.94;5013418;28;20607;-56
2022/03/22 00:41:03;;;;;;;15.93;9.37;;;4.60;99.90;;;5.19;49.47;-19903.41;5013321;28;20231;-59
2022/03/22 00:43:34;;;;;;;12.37;9.33;;;4.50;99.90;;;5.25;49.61;-19905.47;5013169;28;20313;-57
2022/03/22 00:46:02;;;;;;;13.03;9.93;;;4.50;99.90;;;5.22;49.69;-19904.44;5013129;28;20219;-57
2022/03/22 00:48:31;;;;;;;12.93;9.83;;;4.50;99.90;;;5.41;49.27;-19910.94;5013868;28;20243;-58
2022/03/22 00:50:59;;;;;;;11.60;9.40;;;4.60;99.90;;;5.22;49.56;-19904.44;5013023;28;20235;-57
2022/03/22 00:53:27;;;;;;;14.00;9.80;;;4.50;99.90;;;5.31;49.30;-19907.53;5012974;28;20264;-58
2022/03/22 00:55:55;;;;;;;11.00;9.50;;;4.50;99.90;;;5.30;49.55;-19907.19;5013042;28;20718;-56
2022/03/22 00:58:24;;;;;;;12.00;8.80;;;4.50;99.90;;;5.15;49.87;-19902.03;5013022;28;20232;-56
2022/03/22 01:00:52;;;;;;;14.87;9.83;;;4.50;99.90;;;5.35;49.39;-19908.88;5007469;28;20739;-56
2022/03/22 01:03:20;;;;;;;12.70;9.53;;;4.50;99.90;;;5.39;49.06;-19910.44;4993452;28;20634;-57
2022/03/22 01:05:50;;;;;;;14.83;9.80;;;4.50;99.90;;;5.23;49.87;-19904.78;4993218;28;20315;-57
2022/03/22 01:08:18;;;;;;;13.40;9.97;;;4.50;99.90;;;5.16;49.95;-19902.56;4992985;28;20234;-56
2022/03/22 01:10:52;;;;;;;12.40;9.47;;;4.50;99.90;;;5.21;50.29;-19904.09;4993307;28;20234;-55
2022/03/22 01:13:22;;;;;;;11.83;8.77;;;4.50;99.90;;;5.09;50.30;-19900.16;4993222;28;20318;-55
2022/03/22 01:15:52;;;;;;;10.73;8.90;;;4.40;99.90;;;4.98;50.40;-19896.59;4993909;28;20239;-55
2022/03/22 01:18:21;;;;;;;11.27;9.23;;;4.30;99.90;;;5.06;51.04;-19898.97;4992761;28;20755;-56
2022/03/22 01:20:50;;;;;;;12.23;9.07;;;4.30;99.90;;;4.96;50.88;-19895.91;4992889;28;20226;-58
2022/03/22 01:23:20;;;;;;;12.53;9.40;;;4.30;99.90;;;5.04;50.88;-19898.28;4992662;28;20242;-56
2022/03/22 01:25:51;;;;;;;12.20;8.93;;;4.30;99.90;;;5.06;51.21;-19899.13;4993068;28;20263;-58
2022/03/22 01:28:19;;;;;;;11.63;9.77;;;4.30;99.90;;;4.97;50.96;-19896.22;4992622;28;20310;-57
2022/03/22 01:30:48;;;;;;;13.40;9.43;;;4.20;99.90;;;5.07;50.58;-19899.31;4993907;28;20203;-58
2022/03/22 01:33:18;;;;;;;13.33;9.77;;;4.30;99.90;;;5.11;50.30;-19900.69;4992620;28;20255;-56
2022/03/22 01:35:46;;;;;;;11.07;9.07;;;4.30;99.90;;;4.98;50.62;-19896.59;4992751;28;20605;-53
2022/03/22 01:38:14;;;;;;;13.57;9.77;;;4.30;99.90;;;4.81;51.11;-19890.78;4992582;28;20223;-60
2022/03/22 01:40:42;;;;;;;11.43;9.47;;;4.20;99.90;;;4.82;51.39;-19891.09;4992790;28;20223;-59
2022/03/22 01:43:10;;;;;;;14.27;10.83;;;4.10;99.90;;;5.07;51.12;-19899.31;4992511;28;20287;-57
2022/03/22 01:45:38;;;;;;;11.37;9.33;;;4.20;99.90;;;5.04;50.98;-19898.28;4993533;28;20325;-57
2022/03/22 01:48:07;;;;;;;14.17;9.80;;;4.20;99.90;;;4.89;51.74;-19893.50;4992323;28;20714;-54
2022/03/22 01:50:36;;;;;;;12.47;9.87;;;4.20;99.90;;;4.91;51.35;-19894.00;4992435;28;20689;-53
2022/03/22 01:53:10;;;;;;;12.93;10.07;;;4.20;99.90;;;4.74;52.46;-19888.19;4992165;28;20287;-56
2022/03/22 01:55:39;;;;;;;12.00;9.47;;;4.10;99.90;;;4.74;52.08;-19888.38;4992520;28;20237;-56
2022/03/22 01:58:07;;;;;;;14.97;9.77;;;4.10;99.90;;;4.78;52.34;-19889.75;4991821;28;20824;-58
2022/03/22 02:00:36;;;;;;;13.27;10.17;;;4.00;99.90;;;4.68;52.08;-19886.16;4995678;28;20227;-57
2022/03/22 02:05:55;;;;;;;12.53;9.77;;;3.90;99.90;;;4.61;52.78;-19883.75;5011765;28;20667;-55
2022/03/22 02:08:30;;;;;;;11.70;9.50;;;3.80;99.90;;;4.55;52.90;-19881.88;5011226;28;20235;-56
2022/03/22 02:11:01;;;;;;;14.47;9.70;;;3.80;99.90;;;4.27;54.44;-19872.13;5011632;28;20218;-56
2022/03/22 02:13:30;;;;;;;11.50;9.77;;;3.70;99.90;;;4.17;55.11;-19868.72;5011485;28;20262;-55
2022/03/22 02:16:01;;;;;;;19.63;9.93;;;3.60;99.90;;;4.19;54.36;-19869.56;5011815;28;20212;-58
2022/03/22 02:18:30;;;;;;;13.73;9.67;;;3.50;99.90;;;4.20;54.21;-19869.75;5012034;28;20211;-57
2022/03/22 02:21:02;;;;;;;13.93;10.30;;;3.50;99.90;;;4.29;54.17;-19872.81;5011297;28;20222;-56
2022/03/22 02:23:53;;;;;;;13.13;9.03;;;3.50;99.90;;;3.98;56.16;-19862.41;5011098;28;20284;-59
2022/03/22 02:26:24;;;;;;;12.70;10.17;;;3.40;99.90;;;3.78;56.60;-19855.56;5011415;28;20246;-55
2022/03/22 02:28:53;;;;;;;14.07;10.03;;;3.30;99.90;;;3.78;57.55;-19855.38;5011428;28;20252;-55
2022/03/22 02:31:22;;;;;;;14.53;10.07;;;3.20;99.90;;;3.87;58.18;-19858.63;5011405;28;20309;-58
2022/03/22 02:33:51;;;;;;;13.83;10.00;;;3.20;99.90;;;3.74;58.88;-19854.19;5011571;28;20463;-56
2022/03/22 02:36:19;;;;;;;11.87;9.77;;;3.10;99.90;;;3.83;59.03;-19857.25;5010721;28;20231;-58
2022/03/22 02:38:48;;;;;;;15.17;10.10;;;3.10;99.90;;;3.90;57.76;-19859.66;5011010;28;20259;-59
2022/03/22 02:41:20;;;;;;;13.80;9.70;;;3.10;99.90;;;3.75;57.75;-19854.69;5011185;28;20234;-58
2022/03/22 02:43:50;;;;;;;13.47;10.57;;;3.10;99.90;;;3.94;56.83;-19861.03;5010667;28;20239;-59
2022/03/22 02:46:19;;;;;;;12.33;9.57;;;3.10;99.90;;;3.79;57.44;-19855.72;5010919;28;20263;-60
2022/03/22 02:48:47;;;;;;;12.53;9.77;;;3.10;99.90;;;3.64;58.48;-19850.94;5011674;28;20233;-59
2022/03/22 02:51:15;;;;;;;12.30;9.67;;;3.00;99.90;;;3.56;57.65;-19848.22;5011238;28;20230;-59
2022/03/22 02:53:43;;;;;;;14.17;10.07;;;3.00;99.90;;;3.54;57.48;-19847.53;5010789;28;20240;-58
2022/03/22 02:56:12;;;;;;;12.90;10.23;;;2.90;99.90;;;3.56;57.36;-19848.03;5011229;28;20320;-60
2022/03/22 02:58:41;;;;;;;13.40;9.00;;;2.90;99.90;;;3.56;58.37;-19848.03;5010791;28;20224;-58
2022/03/22 03:01:10;;;;;;;13.80;9.83;;;2.90;99.90;;;3.90;57.70;-19859.66;5003265;28;20591;-58
2022/03/22 03:03:39;;;;;;;13.17;10.33;;;2.90;99.90;;;3.71;57.89;-19853.16;4991791;28;20699;-60
2022/03/22 03:06:07;;;;;;;12.53;9.93;;;3.00;99.90;;;3.58;58.81;-19848.72;4991422;28;20230;-60
2022/03/22 03:08:35;;;;;;;12.20;9.87;;;2.90;99.90;;;3.43;59.54;-19843.59;4991154;28;20647;-58
2022/03/22 03:11:03;;;;;;;14.83;10.67;;;2.90;99.90;;;3.43;59.67;-19843.59;4991416;28;20236;-59
2022/03/22 03:14:38;;;;;;;13.40;10.00;;;2.80;99.90;;;3.53;59.25;-19847.00;4991262;28;20257;-60
2022/03/22 03:16:21;;;;;;;13.50;10.00;;;2.80;99.90;;;3.67;59.24;-19851.78;5000041;28;20234;-59
2022/03/22 03:18:51;;;;;;;13.47;10.03;;;2.80;99.90;;;3.80;58.61;-19856.25;5011508;28;20289;-56
2022/03/22 03:21:19;;;;;;;14.27;10.30;;;2.90;99.90;;;3.55;59.40;-19847.69;5011077;28;20433;-58
2022/03/22 03:23:47;;;;;;;14.30;10.37;;;2.90;99.90;;;3.73;59.04;-19853.84;5010870;28;20224;-60
2022/03/22 03:26:15;;;;;;;13.17;9.73;;;2.90;99.90;;;3.48;59.98;-19845.47;5011035;28;20243;-61
2022/03/22 03:28:43;;;;;;;12.73;9.80;;;2.90;99.90;;;3.37;60.52;-19841.53;5010432;28;20229;-60
2022/03/22 03:31:11;;;;;;;14.97;10.17;;;2.80;99.90;;;3.56;60.06;-19848.22;5010767;28;20605;-59
2022/03/22 03:33:41;;;;;;;14.80;10.43;;;2.80;99.90;;;3.38;60.55;-19841.88;5011324;28;20337;-60
2022/03/22 03:36:09;;;;;;;13.73;10.23;;;2.70;99.90;;;3.23;61.86;-19836.75;5010747;28;20234;-60
2022/03/22 03:38:41;;;;;;;14.67;10.87;;;2.70;99.90;;;3.41;61.92;-19842.91;5010256;28;20684;-57
2022/03/22 03:43:56;;;;;;;13.83;9.70;;;2.70;99.90;;;3.47;60.64;-19844.97;5010448;28;20373;-57
2022/03/22 03:49:11;;;;;;;14.47;10.37;;;2.60;99.90;;;3.15;64.02;-19834.00;5010490;28;20223;-59
2022/03/22 03:51:39;;;;;;;14.10;10.30;;;2.60;99.90;;;3.11;63.96;-19832.66;5010885;28;20781;-59
2022/03/22 03:54:07;;;;;;;13.57;10.20;;;2.60;99.90;;;3.16;64.84;-19834.34;5009570;28;20228;-61
2022/03/22 03:56:35;;;;;;;14.30;10.37;;;2.50;99.90;;;3.25;63.61;-19837.59;5010292;28;20239;-57
2022/03/22 03:59:03;;;;;;;13.13;10.13;;;2.50;99.90;;;3.14;63.16;-19833.69;5009840;28;20232;-58
2022/03/22 04:01:33;;;;;;;14.33;10.30;;;2.50;99.90;;;3.10;64.32;-19832.47;4999305;28;20576;-60
2022/03/22 04:04:01;;;;;;;13.63;10.23;;;2.40;99.90;;;3.20;64.62;-19835.72;4989706;28;20560;-59
2022/03/22 04:06:31;;;;;;;12.67;10.00;;;2.50;99.90;;;3.05;64.75;-19830.59;4991725;28;20205;-60
2022/03/22 04:08:59;;;;;;;13.23;10.07;;;2.40;99.90;;;3.09;64.78;-19832.13;4990392;28;20611;-58
2022/03/22 04:11:27;;;;;;;14.90;10.27;;;2.40;99.90;;;2.99;64.28;-19828.53;4990700;28;20229;-56
2022/03/22 04:13:55;;;;;;;12.43;9.43;;;2.40;99.90;;;2.95;65.42;-19827.19;5010128;28;20271;-59
2022/03/22 04:16:23;;;;;;;16.00;9.87;;;2.30;99.90;;;3.00;65.78;-19828.88;5010389;28;20238;-60
2022/03/22 04:18:51;;;;;;;15.93;9.70;;;2.30;99.90;;;2.98;65.09;-19828.38;5010608;28;20210;-60
2022/03/22 04:21:19;;;;;;;16.43;10.07;;;2.30;99.90;;;2.89;65.41;-19825.31;5009724;28;20236;-58
2022/03/22 04:24:08;;;;;;;13.40;10.23;;;2.30;99.90;;;3.11;65.49;-19832.81;5009814;28;20253;-60
2022/03/22 04:26:55;;;;;;;16.60;10.00;;;2.30;99.90;;;3.06;65.38;-19830.94;5010357;28;20242;-60
2022/03/22 04:34:54;;;;;;;14.17;9.70;;;2.40;99.90;;;3.22;64.49;-19836.41;5010022;28;20314;-59
2022/03/22 04:37:22;;;;;;;14.00;9.90;;;2.40;99.90;;;3.29;63.58;-19838.81;5010215;28;20227;-59
2022/03/22 04:39:52;;;;;;;13.40;9.53;;;2.40;99.90;;;3.38;62.88;-19841.88;5010181;28;20681;-60
2022/03/22 04:42:19;;;;;;;13.83;10.03;;;2.50;99.90;;;3.28;63.20;-19838.63;5009801;28;20657;-59
2022/03/22 04:44:47;;;;;;;14.13;11.30;;;2.50;99.90;;;3.26;62.79;-19837.94;5009660;28;20318;-57
2022/03/22 04:47:15;;;;;;;14.60;11.43;;;2.50;99.90;;;3.18;63.32;-19835.22;5002505;28;20333;-59
2022/03/22 04:49:43;;;;;;;14.47;10.83;;;2.50;99.90;;;3.16;64.72;-19834.34;5009401;28;20750;-59
2022/03/22 04:57:44;;;;;;;16.20;10.37;;;2.50;99.90;;;3.34;62.21;-19840.50;5009988;28;20211;-59
2022/03/22 05:00:13;;;;;;;14.20;9.80;;;2.50;99.90;;;3.28;62.74;-19838.47;5010468;28;20648;-59
2022/03/22 05:02:42;;;;;;;15.77;10.20;;;2.50;99.90;;;3.26;62.63;-19837.94;4993609;28;20719;-59
2022/03/22 05:05:10;;;;;;;13.37;9.77;;;2.50;99.90;;;3.22;62.33;-19836.41;4993450;28;20233;-58
2022/03/22 05:07:39;;;;;;;13.90;10.23;;;2.50;99.90;;;3.34;62.77;-19840.69;4994249;28;20243;-57
2022/03/22 05:10:11;;;;;;;15.00;10.23;;;2.50;99.90;;;3.30;62.49;-19839.16;5012707;28;20242;-62
2022/03/22 05:12:42;;;;;;;14.47;9.80;;;2.50;99.90;;;3.29;62.40;-19838.97;5013625;28;20192;-59
2022/03/22 05:15:10;;;;;;;14.63;10.10;;;2.60;99.90;;;3.28;62.36;-19838.63;5012844;28;20324;-59
2022/03/22 05:17:38;;;;;;;13.93;10.27;;;2.50;99.90;;;3.42;62.05;-19843.41;5013038;28;20604;-60
2022/03/22 05:20:09;;;;;;;14.17;10.60;;;2.60;99.90;;;3.36;61.81;-19841.19;5013098;28;20235;-58
2022/03/22 05:22:38;;;;;;;14.73;10.60;;;2.60;99.90;;;3.36;61.79;-19841.19;5013023;28;20220;-58
2022/03/22 05:25:09;;;;;;;12.63;10.07;;;2.60;99.90;;;3.52;60.93;-19846.66;5012845;28;20290;-57
2022/03/22 05:27:37;;;;;;;13.27;9.97;;;2.70;99.90;;;3.62;61.06;-19850.25;5013304;28;20299;-58
2022/03/22 05:30:07;;;;;;;13.93;9.93;;;2.70;99.90;;;3.57;60.71;-19848.38;5012968;28;20234;-56
2022/03/22 05:32:35;;;;;;;13.10;9.67;;;2.70;99.90;;;3.35;60.87;-19841.03;5012808;28;20280;-59
2022/03/22 05:35:04;;;;;;;15.37;11.00;;;2.70;99.90;;;3.32;61.62;-19840.00;5012455;28;20234;-59
2022/03/22 05:37:32;;;;;;;14.03;10.20;;;2.70;99.90;;;3.51;60.30;-19846.31;5012688;28;20306;-59
2022/03/22 05:40:00;;;;;;;12.80;9.63;;;2.70;99.90;;;3.43;60.48;-19843.59;5012561;28;20217;-59
2022/03/22 05:42:29;;;;;;;13.43;9.77;;;2.70;99.90;;;3.59;59.89;-19849.06;5012991;28;20211;-57
2022/03/22 05:44:57;;;;;;;13.87;9.70;;;2.70;99.90;;;3.74;59.00;-19854.34;5012463;28;20256;-59
2022/03/22 05:47:25;;;;;;;14.13;10.30;;;2.80;99.90;;;3.62;59.48;-19850.25;5012117;28;20578;-59
2022/03/22 05:49:53;;;;;;;12.47;10.03;;;2.80;99.90;;;3.75;59.53;-19854.53;5012622;28;20430;-59
2022/03/22 05:52:21;;;;;;;13.13;9.67;;;2.90;99.90;;;3.59;59.69;-19849.22;5012241;28;20316;-58
2022/03/22 05:54:49;;;;;;;13.03;10.20;;;2.90;99.90;;;3.62;59.92;-19850.25;5012702;28;20240;-57
2022/03/22 05:57:16;;;;;;;12.83;9.50;;;2.90;99.90;;;3.71;58.96;-19853.16;5012137;28;20227;-59
2022/03/22 05:59:46;;;;;;;12.90;10.17;;;3.00;99.90;;;3.83;58.32;-19857.09;5012035;28;20242;-57
2022/03/22 06:02:14;;;;;;;12.27;9.60;;;3.10;99.90;;;3.93;58.13;-19860.50;4995057;28;20221;-57
2022/03/22 06:04:42;;;;;;;14.40;10.87;;;3.20;99.90;;;3.97;58.42;-19862.06;4999114;28;20223;-59
2022/03/22 06:07:10;;;;;;;13.57;10.20;;;3.20;99.90;;;4.00;57.30;-19863.06;5012620;28;20211;-58
2022/03/22 06:09:38;;;;;;;14.40;10.93;;;3.30;99.90;;;4.10;57.41;-19866.31;5013160;28;20201;-59
2022/03/22 06:12:07;;;;;;;12.17;9.87;;;3.40;99.90;;;4.25;56.38;-19871.44;5011192;28;20311;-59
2022/03/22 06:14:35;;;;;;;16.30;11.03;;;3.40;99.90;;;4.25;56.75;-19871.44;5012359;28;20234;-57
2022/03/22 06:17:05;;;;;;;19.30;11.03;;;3.50;99.90;;;4.37;55.29;-19875.56;5012385;28;20745;-59
2022/03/22 06:19:33;;;;;;;16.03;10.73;;;3.60;99.90;;;4.38;55.95;-19876.06;5012552;28;20243;-57
2022/03/22 06:22:03;;;;;;;13.77;10.63;;;3.60;99.90;;;4.42;55.29;-19877.25;5012305;28;20222;-57
2022/03/22 06:24:31;;;;;;;15.10;10.33;;;3.70;99.90;;;4.51;54.29;-19880.34;5013048;28;20241;-58
2022/03/22 06:26:59;;;;;;;15.97;10.47;;;3.80;99.90;;;4.47;54.43;-19879.16;5012548;28;20234;-56
2022/03/22 06:29:27;;;;;;;19.23;10.20;;;3.80;99.90;;;4.67;53.63;-19885.97;5012529;28;20237;-59
2022/03/22 06:31:55;;;;;;;22.63;11.10;;;3.90;99.90;;;4.72;53.19;-19887.50;5012280;28;20230;-60
2022/03/22 06:34:25;;;;;;;15.30;10.63;;;4.00;99.90;;;4.87;52.58;-19892.81;5012445;28;20720;-58
2022/03/22 06:36:53;;;;;;;15.47;10.23;;;4.00;99.90;;;4.76;52.34;-19888.88;5012772;28;20289;-54
2022/03/22 06:39:22;;;;;;;13.07;9.80;;;4.10;99.90;;;4.82;52.39;-19890.94;5011930;28;20344;-55
2022/03/22 06:41:51;;;;;;;14.63;10.60;;;4.10;99.90;;;4.97;52.02;-19896.22;5011505;28;20216;-55
2022/03/22 06:44:18;;;;;;;14.10;10.53;;;4.20;99.90;;;5.01;52.23;-19897.25;5012282;28;20328;-57
2022/03/22 06:46:46;;;;;;;15.00;10.67;;;4.30;99.90;;;5.10;50.81;-19900.34;5012230;28;20255;-56
2022/03/22 06:49:15;;;;;;;15.33;10.20;;;4.40;99.90;;;5.16;51.10;-19902.56;5012147;28;20859;-54
2022/03/22 06:51:44;;;;;;;11.27;9.83;;;4.50;99.90;;;5.43;50.36;-19911.78;5012403;28;20228;-54
2022/03/22 06:54:12;;;;;;;12.13;9.37;;;4.60;99.90;;;5.41;50.45;-19911.09;5011547;28;20317;-54
2022/03/22 06:56:40;;;;;;;14.57;9.80;;;4.70;99.90;;;5.60;49.97;-19917.44;5011635;28;20230;-55
2022/03/22 06:59:08;;;;;;;14.03;10.60;;;4.80;99.90;;;5.68;49.08;-19920.34;5011932;28;20243;-54
2022/03/22 07:01:36;;;;;;;13.07;9.97;;;4.90;99.90;;;5.81;49.09;-19924.59;5011278;28;20229;-56
2022/03/22 07:04:04;;;;;;;13.13;9.77;;;5.00;99.90;;;5.84;49.18;-19925.81;5011519;28;20302;-55
2022/03/22 07:06:32;;;;;;;14.07;9.77;;;5.10;99.90;;;5.98;48.54;-19930.44;5012405;28;20277;-58
2022/03/22 07:09:01;;;;;;;11.37;9.67;;;5.20;99.90;;;6.20;48.47;-19937.94;5011463;28;20233;-54
2022/03/22 07:11:49;;;;;;;12.47;9.70;;;5.30;99.90;;;6.17;48.63;-19937.09;5011784;28;20258;-57
2022/03/22 07:14:19;;;;;;;13.27;10.20;;;5.40;99.90;;;6.22;48.25;-19938.78;5011614;28;20273;-54
2022/03/22 07:16:48;;;;;;;13.43;10.60;;;5.50;99.90;;;6.27;47.85;-19940.34;5011406;28;20657;-61
2022/03/22 07:19:18;;;;;;;12.93;10.60;;;5.60;99.90;;;6.44;47.70;-19945.97;5017979;28;20748;-59
2022/03/22 07:21:47;;;;;;;15.47;9.87;;;5.70;99.90;;;6.52;47.51;-19948.88;5031593;28;20199;-59
2022/03/22 07:24:19;;;;;;;14.93;10.30;;;5.80;99.90;;;6.60;47.64;-19951.63;5030167;28;20228;-56
2022/03/22 07:26:47;;;;;;;15.40;10.43;;;5.90;99.90;;;6.69;47.70;-19954.53;5023952;28;20311;-60
2022/03/22 07:29:18;;;;;;;13.33;10.47;;;6.00;99.90;;;6.86;47.49;-19960.50;5002046;28;20235;-58
2022/03/22 07:31:48;;;;;;;13.20;10.77;;;6.10;99.90;;;7.05;46.36;-19966.81;5014263;28;20197;-56
2022/03/22 07:34:20;;;;;;;14.60;10.70;;;6.20;99.90;;;7.13;46.71;-19969.72;5009895;28;20194;-56
2022/03/22 07:36:52;;;;;;;14.73;10.40;;;6.30;99.90;;;7.22;45.79;-19972.81;4991106;28;20333;-60
2022/03/22 07:39:23;;;;;;;14.87;10.43;;;6.40;99.90;;;7.47;45.23;-19981.00;5009245;28;20237;-60
2022/03/22 07:41:52;;;;;;;15.37;10.87;;;6.50;99.90;;;7.52;45.05;-19982.72;5010581;28;20603;-60
2022/03/22 07:44:20;;;;;;;15.50;10.43;;;6.70;99.90;;;7.65;44.51;-19987.16;5012915;28;20227;-59
2022/03/22 07:46:48;;;;;;;12.13;10.40;;;6.80;99.90;;;7.75;44.03;-19990.75;5000667;28;20197;-60
2022/03/22 07:55:02;;;;;;;12.07;10.43;;;7.10;99.90;;;8.21;42.43;-20006.28;4949953;29;20329;-59
2022/03/22 07:57:31;;;;;;;13.93;10.73;;;7.30;99.90;;;8.36;42.18;-20011.59;4949688;29;20318;-61
2022/03/22 07:59:59;;;;;;;13.50;10.30;;;7.40;99.90;;;8.53;41.61;-20017.41;4968750;28;20254;-60
2022/03/22 08:02:27;;;;;;;13.70;9.77;;;7.50;99.90;;;8.62;41.46;-20020.31;4991004;28;20353;-60
2022/03/22 08:04:55;;;;;;;15.27;10.40;;;7.70;99.70;;;8.80;41.10;-20026.28;5009388;28;20225;-61
2022/03/22 08:07:23;;;;;;;11.03;9.33;;;7.80;99.50;;;8.97;39.21;-20032.28;5011237;28;20292;-60
2022/03/22 08:09:51;;;;;;;11.30;7.93;;;7.90;98.00;;;9.06;39.04;-20035.34;5010373;28;20564;-60
2022/03/22 08:12:21;;;;;;;10.10;8.53;;;8.00;98.00;;;9.18;38.71;-20039.28;5010398;28;20226;-59
2022/03/22 08:14:49;;;;;;;12.00;9.50;;;8.20;97.60;;;9.29;38.37;-20043.03;5010795;28;20249;-56
2022/03/22 08:17:16;;;;;;;10.33;8.90;;;8.30;97.50;;;9.37;38.85;-20045.94;5010627;28;20239;-60
2022/03/22 08:19:44;;;;;;;11.13;9.30;;;8.40;97.60;;;9.52;38.75;-20051.06;5010711;28;20202;-62
2022/03/22 08:22:12;;;;;;;11.50;9.37;;;8.50;97.60;;;9.62;38.73;-20054.47;5011144;28;20210;-60
2022/03/22 08:24:40;;;;;;;15.80;9.53;;;8.60;97.50;;;9.73;38.22;-20058.25;5010497;28;20226;-60
2022/03/22 08:27:08;;;;;;;12.37;9.43;;;8.70;97.10;;;9.86;37.25;-20062.50;5010406;28;20313;-60
2022/03/22 08:29:38;;;;;;;12.47;10.07;;;8.80;96.60;;;9.97;37.57;-20066.09;5010181;28;20785;-56
2022/03/22 08:32:09;;;;;;;10.43;9.20;;;8.90;96.60;;;9.99;36.47;-20066.94;5010607;28;20227;-57
2022/03/22 08:34:38;;;;;;;11.60;9.30;;;9.00;95.90;;;10.11;36.63;-20071.06;5010789;28;20227;-57
2022/03/22 08:37:06;;;;;;;11.43;9.13;;;9.00;96.00;;;10.04;36.93;-20068.66;5014563;28;20321;-57
2022/03/22 08:39:34;;;;;;;13.00;9.50;;;9.00;96.00;;;10.08;36.50;-20070.03;5014101;28;20659;-53
2022/03/22 08:42:02;;;;;;;12.33;9.47;;;9.00;95.60;;;10.24;36.60;-20075.31;5014340;28;20313;-55
2022/03/22 08:44:30;;;;;;;13.70;9.03;;;9.10;95.90;;;10.26;36.08;-20076.00;5014138;28;20309;-51
2022/03/22 08:47:01;;;;;;;10.73;8.87;;;9.20;95.40;;;10.41;36.23;-20081.13;5014450;28;20222;-57
2022/03/22 08:49:29;;;;;;;16.57;9.73;;;9.20;95.40;;;10.43;35.86;-20081.81;5015126;28;20218;-55
2022/03/22 08:51:57;;;;;;;12.60;9.50;;;9.20;95.30;;;10.43;35.32;-20081.81;5014139;28;20824;-55
2022/03/22 08:54:25;;;;;;;10.87;8.23;;;9.30;94.80;;;10.48;35.40;-20083.69;5013615;28;20222;-59
2022/03/22 08:56:53;;;;;;;13.80;9.83;;;9.40;94.90;;;10.61;35.10;-20087.97;5014218;28;20272;-59
2022/03/22 08:59:21;;;;;;;12.37;9.57;;;9.50;94.60;;;10.78;34.44;-20093.78;5013915;28;20218;-59
2022/03/22 09:01:49;;;;;;;12.07;8.73;;;9.70;94.40;;;10.83;34.59;-20095.47;5014138;28;20231;-58
2022/03/22 09:07:04;;;;;;;9.03;8.00;;;9.80;94.00;;;11.10;33.37;-20104.69;5014540;28;20249;-59
2022/03/22 09:09:32;;;;;;;9.73;8.40;;;9.90;93.30;;;11.25;32.66;-20109.81;5013504;28;20233;-60
2022/03/22 09:12:00;;;;;;;16.30;9.00;;;10.00;92.70;;;11.24;33.38;-20109.47;5013812;28;20633;-66
2022/03/22 09:14:29;;;;;;;10.70;8.63;;;10.10;93.30;;;11.24;32.63;-20109.31;5013634;28;20257;-65
2022/03/22 09:16:57;;;;;;;10.37;8.13;;;10.10;92.20;;;11.55;32.71;-20120.06;5013959;28;20309;-60
2022/03/22 09:19:26;;;;;;;9.67;8.67;;;10.20;92.50;;;11.56;32.01;-20120.25;5013821;28;20572;-58
2022/03/22 09:22:15;;;;;;;10.27;8.63;;;10.30;92.20;;;11.50;32.33;-20118.19;5013435;28;20237;-60
2022/03/22 09:24:43;;;;;;;11.53;8.97;;;10.30;92.00;;;11.45;32.25;-20116.66;5013242;28;20746;-59
2022/03/22 09:27:11;;;;;;;11.20;9.00;;;10.40;91.70;;;11.67;33.49;-20124.00;5013574;28;20249;-56
2022/03/22 09:29:39;;;;;;;9.40;7.70;;;10.50;92.80;;;11.82;31.54;-20129.28;5013023;28;20313;-54
2022/03/22 09:32:08;;;;;;;10.30;8.40;;;10.50;91.40;;;11.81;31.66;-20128.78;5013504;28;20257;-56
2022/03/22 09:34:37;;;;;;;10.53;8.77;;;10.60;91.20;;;11.86;31.38;-20130.50;5012327;28;20249;-56
2022/03/22 09:37:05;;;;;;;10.53;8.43;;;10.70;90.90;;;12.03;30.97;-20136.28;5011252;28;20329;-56
2022/03/22 09:39:33;;;;;;;12.00;8.43;;;10.80;90.50;;;12.11;31.21;-20139.19;4993108;28;20740;-58
2022/03/22 09:42:03;;;;;;;9.40;7.97;;;10.90;90.70;;;12.34;31.01;-20146.72;4993359;28;20230;-60
2022/03/22 09:44:31;;;;;;;11.73;9.37;;;11.00;90.70;;;12.37;30.41;-20147.72;4993473;28;20226;-58
2022/03/22 09:46:59;;;;;;;11.67;8.20;;;11.00;90.30;;;12.32;30.66;-20146.19;4993623;28;20225;-59
2022/03/22 09:49:28;;;;;;;12.37;9.20;;;11.10;90.20;;;12.48;30.23;-20151.50;4993826;28;20701;-60
2022/03/22 09:51:58;;;;;;;10.50;9.20;;;11.20;90.20;;;12.58;30.37;-20154.91;4992915;28;20774;-59
2022/03/22 09:54:26;;;;;;;10.20;8.93;;;11.30;90.10;;;12.51;30.76;-20152.69;4992905;28;20234;-58
2022/03/22 09:56:54;;;;;;;13.47;9.50;;;11.40;90.30;;;12.58;30.22;-20154.91;4993248;28;20238;-54
2022/03/22 09:59:22;;;;;;;10.23;8.53;;;11.40;89.60;;;12.61;30.09;-20155.94;4993115;28;20752;-56
2022/03/22 10:01:50;;;;;;;10.70;8.50;;;11.40;89.20;;;12.81;30.06;-20162.75;4993330;28;20195;-56
2022/03/22 10:04:18;;;;;;;10.63;9.30;;;11.60;89.80;;;12.85;29.89;-20164.13;4993300;28;20667;-55
2022/03/22 10:06:54;;;;;;;11.77;8.80;;;11.60;89.40;;;12.80;30.92;-20162.41;4993197;28;20227;-57
2022/03/22 10:09:32;;;;;;;12.97;9.40;;;11.60;90.50;;;12.84;31.19;-20163.94;4993012;28;20226;-59
2022/03/22 10:12:00;;;;;;;11.90;9.00;;;11.70;90.40;;;12.96;30.61;-20167.88;4992825;28;20235;-58
2022/03/22 10:14:41;;;;;;;11.27;8.93;;;11.70;89.80;;;12.99;30.65;-20168.91;4993033;28;20223;-56
2022/03/22 10:17:15;;;;;;;9.60;8.10;;;11.80;89.30;;;13.02;29.52;-20170.09;4992949;28;20286;-53
2022/03/22 10:19:47;;;;;;;11.97;8.20;;;11.80;88.30;;;13.11;29.89;-20173.00;4993104;28;20190;-58
2022/03/22 10:22:17;;;;;;;14.23;9.60;;;11.80;88.40;;;13.18;29.96;-20175.41;4993210;28;20832;-58
2022/03/22 10:24:49;;;;;;;10.40;8.37;;;11.90;88.40;;;13.19;29.62;-20175.75;4992564;28;20227;-60
2022/03/22 10:27:26;;;;;;;9.70;8.00;;;12.00;87.80;;;13.29;29.04;-20179.16;4992482;28;20231;-64
2022/03/22 10:30:17;;;;;;;10.33;8.20;;;12.00;86.60;;;13.32;28.69;-20180.19;4999830;28;20222;-61
2022/03/22 10:32:51;;;;;;;10.50;8.60;;;12.10;86.00;;;13.22;28.92;-20176.75;5012259;28;20313;-58
2022/03/22 10:35:22;;;;;;;13.30;8.50;;;12.00;86.00;;;13.36;28.21;-20181.72;5012347;28;20264;-61
2022/03/22 10:37:54;;;;;;;10.77;8.40;;;12.10;84.90;;;13.39;29.08;-20182.56;5003371;28;20298;-58
2022/03/22 10:40:30;;;;;;;12.63;8.80;;;12.10;86.40;;;13.42;28.58;-20183.59;4993017;28;20590;-59
2022/03/22 10:43:01;;;;;;;10.77;8.47;;;12.10;85.70;;;13.46;28.11;-20185.13;4992603;28;20203;-60
2022/03/22 10:45:33;;;;;;;11.10;8.77;;;12.20;85.00;;;13.51;27.81;-20186.50;4992785;28;20219;-59
2022/03/22 10:48:03;;;;;;;10.63;8.80;;;12.30;84.40;;;13.59;28.01;-20189.22;4992469;28;20231;-60
2022/03/22 10:50:31;;;;;;;13.47;9.00;;;12.30;84.60;;;13.58;28.00;-20189.06;5007370;28;20297;-58
2022/03/22 10:53:00;;;;;;;10.60;8.23;;;12.40;84.40;;;13.74;28.03;-20194.50;5011818;28;20233;-59